createdAt,value
2023-02-23T00:00:45.435Z,51.13
2023-02-23T00:03:12.085Z,51.33
2023-02-23T00:05:38.713Z,50.28
2023-02-23T00:08:06.096Z,50.84
2023-02-23T00:10:33.556Z,50.33
2023-02-23T00:13:18.496Z,51.18
2023-02-23T00:15:45.037Z,51.20
2023-02-23T00:18:17.312Z,52.54
2023-02-23T00:20:47.953Z,51.45
2023-02-23T00:23:15.119Z,50.66
2023-02-23T00:25:53.769Z,50.68
2023-02-23T00:28:39.234Z,50.57
2023-02-23T00:31:05.789Z,51.33
2023-02-23T00:33:32.372Z,51.49
2023-02-23T00:36:08.698Z,51.09
2023-02-23T00:38:36.431Z,51.99
2023-02-23T00:41:14.300Z,51.70
2023-02-23T00:43:47.838Z,51.44
2023-02-23T00:46:21.255Z,51.34
2023-02-23T00:48:49.839Z,51.75
2023-02-23T00:51:18.114Z,53.12
2023-02-23T00:53:45.334Z,52.53
2023-02-23T00:56:14.603Z,52.63
2023-02-23T00:58:46.240Z,52.03
2023-02-23T01:01:14.079Z,53.70
2023-02-23T01:03:42.128Z,53.96
2023-02-23T01:06:12.390Z,52.63
2023-02-23T01:08:57.665Z,51.31
2023-02-23T01:11:49.364Z,52.42
2023-02-23T01:14:25.242Z,52.12
2023-02-23T01:16:51.834Z,52.16
2023-02-23T01:19:18.629Z,51.98
2023-02-23T01:21:45.366Z,51.60
2023-02-23T01:24:13.257Z,51.04
2023-02-23T01:26:45.219Z,52.51
2023-02-23T01:29:14.541Z,52.65
2023-02-23T01:31:48.006Z,51.58
2023-02-23T01:34:15.197Z,51.34
2023-02-23T01:36:43.264Z,52.83
2023-02-23T01:39:13.711Z,51.91
2023-02-23T01:41:42.439Z,53.08
2023-02-23T01:44:39.607Z,54.32
2023-02-23T01:47:06.174Z,54.57
2023-02-23T01:49:36.337Z,52.95
2023-02-23T01:52:13.400Z,52.06
2023-02-23T01:54:58.198Z,52.54
2023-02-23T01:57:43.080Z,53.02
2023-02-23T02:00:15.072Z,52.22
2023-02-23T02:02:42.679Z,51.58
2023-02-23T02:05:14.086Z,51.80
2023-02-23T02:07:46.305Z,51.80
2023-02-23T02:10:12.922Z,52.91
2023-02-23T02:12:41.463Z,54.19
2023-02-23T02:15:17.082Z,54.04
2023-02-23T02:17:49.735Z,53.58
2023-02-23T02:20:42.873Z,53.01
2023-02-23T02:23:28.372Z,53.04
2023-02-23T02:26:17.722Z,53.14
2023-02-23T02:28:54.761Z,52.40
2023-02-23T02:31:58.758Z,51.89
2023-02-23T02:34:53.659Z,52.11
2023-02-23T02:37:47.730Z,51.86
2023-02-23T02:40:58.303Z,52.44
2023-02-23T02:43:37.725Z,51.93
2023-02-23T02:46:20.007Z,51.99
2023-02-23T02:48:46.587Z,51.75
2023-02-23T02:51:39.600Z,51.02
2023-02-23T02:57:57.838Z,50.80
2023-02-23T03:00:57.221Z,51.87
2023-02-23T03:04:08.810Z,51.57
2023-02-23T03:06:56.527Z,52.22
2023-02-23T03:10:13.058Z,51.14
2023-02-23T03:16:18.994Z,51.52
2023-02-23T03:19:06.836Z,51.53
2023-02-23T03:26:35.352Z,51.47
2023-02-23T03:29:25.985Z,53.04
2023-02-23T03:32:13.967Z,52.32
2023-02-23T03:35:10.527Z,51.69
2023-02-23T03:38:06.856Z,51.73
2023-02-23T03:40:55.959Z,51.64
2023-02-23T03:43:45.942Z,51.10
2023-02-23T03:46:33.551Z,51.60
2023-02-23T03:49:21.689Z,52.14
2023-02-23T03:52:10.684Z,53.15
2023-02-23T03:55:04.314Z,53.06
2023-02-23T03:57:52.414Z,52.23
2023-02-23T04:00:46.432Z,52.30
2023-02-23T04:03:35.224Z,52.75
2023-02-23T04:06:28.245Z,52.64
2023-02-23T04:09:18.353Z,52.66
2023-02-23T04:15:56.788Z,53.34
2023-02-23T04:18:34.132Z,53.17
2023-02-23T04:21:01.059Z,53.04
2023-02-23T04:23:29.113Z,53.65
2023-02-23T04:25:56.976Z,53.34
2023-02-23T04:28:25.428Z,52.98
2023-02-23T04:30:54.868Z,53.30
2023-02-23T04:33:22.337Z,53.67
2023-02-23T04:35:49.422Z,52.99
2023-02-23T04:38:16.022Z,53.44
2023-02-23T04:40:42.857Z,53.67
2023-02-23T04:43:12.613Z,52.47
2023-02-23T04:45:39.462Z,53.11
2023-02-23T04:48:06.261Z,53.12
2023-02-23T04:50:32.989Z,54.94
2023-02-23T04:52:59.756Z,54.60
2023-02-23T04:55:26.684Z,54.79
2023-02-23T04:57:59.161Z,54.78
2023-02-23T05:00:26.242Z,54.41
2023-02-23T05:02:52.825Z,53.40
2023-02-23T05:05:19.476Z,54.07
2023-02-23T05:07:46.054Z,53.52
2023-02-23T05:10:12.648Z,53.93
2023-02-23T05:12:39.209Z,53.26
2023-02-23T05:18:19.696Z,54.50
2023-02-23T05:20:46.327Z,53.65
2023-02-23T05:23:14.643Z,53.67
2023-02-23T05:25:41.256Z,53.41
2023-02-23T05:28:08.201Z,55.14
2023-02-23T05:30:35.652Z,54.15
2023-02-23T05:36:19.131Z,53.93
2023-02-23T05:38:46.980Z,53.56
2023-02-23T05:41:16.964Z,54.16
2023-02-23T05:43:43.828Z,53.90
2023-02-23T05:46:15.096Z,54.86
2023-02-23T05:48:41.933Z,55.11
2023-02-23T05:51:12.311Z,54.31
2023-02-23T05:53:39.388Z,54.78
2023-02-23T05:56:08.158Z,55.00
2023-02-23T05:58:35.031Z,55.27
2023-02-23T06:01:01.585Z,53.62
2023-02-23T06:03:28.157Z,56.62
2023-02-23T06:05:57.456Z,56.41
2023-02-23T06:08:25.862Z,55.23
2023-02-23T06:10:52.790Z,56.31
2023-02-23T06:13:21.246Z,57.00
2023-02-23T06:15:49.419Z,55.57
2023-02-23T06:18:17.594Z,55.57
2023-02-23T06:20:45.971Z,56.32
2023-02-23T06:23:12.753Z,55.35
2023-02-23T06:25:40.858Z,56.40
2023-02-23T06:28:08.658Z,55.83
2023-02-23T06:30:36.353Z,55.55
2023-02-23T06:33:03.618Z,55.51
2023-02-23T06:35:30.317Z,56.51
2023-02-23T06:37:57.053Z,55.18
2023-02-23T06:40:23.595Z,53.91
2023-02-23T06:42:50.481Z,53.17
2023-02-23T06:45:17.263Z,53.90
2023-02-23T06:47:44.714Z,53.46
2023-02-23T06:50:11.808Z,53.57
2023-02-23T06:52:38.843Z,52.74
2023-02-23T06:55:06.662Z,54.18
2023-02-23T06:57:34.214Z,53.03
2023-02-23T07:00:01.851Z,53.77
2023-02-23T07:02:28.446Z,51.54
2023-02-23T07:04:55.004Z,50.73
2023-02-23T07:07:22.203Z,50.26
2023-02-23T07:09:48.733Z,49.85
2023-02-23T07:12:15.319Z,51.28
2023-02-23T07:14:41.916Z,52.12
2023-02-23T07:17:09.343Z,51.52
2023-02-23T07:19:37.101Z,50.92
2023-02-23T07:22:04.908Z,50.28
2023-02-23T07:24:31.532Z,50.02
2023-02-23T07:26:58.135Z,49.73
2023-02-23T07:29:24.778Z,50.56
2023-02-23T07:31:51.491Z,52.21
2023-02-23T07:34:18.181Z,53.21
2023-02-23T07:37:42.284Z,50.99
2023-02-23T07:40:29.056Z,50.50
2023-02-23T07:42:55.646Z,50.13
2023-02-23T07:45:24.881Z,49.94
2023-02-23T07:47:51.817Z,51.39
2023-02-23T07:50:18.473Z,51.01
2023-02-23T07:52:45.069Z,51.45
2023-02-23T07:55:12.327Z,50.89
2023-02-23T07:57:39.618Z,51.61
2023-02-23T08:00:07.288Z,51.51
2023-02-23T08:02:53.591Z,49.76
2023-02-23T08:05:20.239Z,49.84
2023-02-23T08:07:46.795Z,49.20
2023-02-23T08:10:13.669Z,48.49
2023-02-23T08:12:40.287Z,49.52
2023-02-23T08:15:08.322Z,50.04
2023-02-23T08:17:36.145Z,48.98
2023-02-23T08:20:02.718Z,49.38
2023-02-23T08:22:31.861Z,49.86
2023-02-23T08:25:28.907Z,49.70
2023-02-23T08:27:55.715Z,49.00
2023-02-23T08:30:24.585Z,48.06
2023-02-23T08:32:51.550Z,48.39
2023-02-23T08:35:20.130Z,47.48
2023-02-23T08:38:11.714Z,46.72
2023-02-23T08:41:00.790Z,46.44
2023-02-23T08:43:27.986Z,46.21
2023-02-23T08:45:54.576Z,48.50
2023-02-23T08:48:22.818Z,47.88
2023-02-23T08:50:50.482Z,46.82
2023-02-23T08:53:17.617Z,46.32
2023-02-23T08:55:44.719Z,46.10
2023-02-23T08:58:11.544Z,46.54
2023-02-23T09:00:38.698Z,45.43
2023-02-23T09:03:06.795Z,45.85
2023-02-23T09:05:58.829Z,45.02
2023-02-23T09:08:54.409Z,45.95
2023-02-23T09:11:43.034Z,45.96
2023-02-23T09:14:09.666Z,46.01
2023-02-23T09:16:36.791Z,45.35
2023-02-23T09:19:03.935Z,45.12
2023-02-23T09:21:32.669Z,44.45
2023-02-23T09:23:59.252Z,44.23
2023-02-23T09:26:29.446Z,44.66
2023-02-23T09:28:59.059Z,43.26
2023-02-23T09:31:25.713Z,43.87
2023-02-23T09:33:53.318Z,44.80
2023-02-23T09:36:23.845Z,44.57
2023-02-23T09:38:55.278Z,43.36
2023-02-23T09:41:47.719Z,42.62
2023-02-23T09:44:53.000Z,42.24
2023-02-23T09:47:32.656Z,43.36
2023-02-23T09:50:02.800Z,43.42
2023-02-23T09:52:41.237Z,44.51
2023-02-23T09:58:57.454Z,43.33
2023-02-23T10:01:45.115Z,43.54
2023-02-23T10:04:16.192Z,43.87
2023-02-23T10:06:49.394Z,43.02
2023-02-23T10:09:33.339Z,42.25
2023-02-23T10:12:18.643Z,42.56
2023-02-23T10:15:07.733Z,44.66
2023-02-23T10:17:47.777Z,42.58
2023-02-23T10:20:30.238Z,43.48
2023-02-23T10:23:07.307Z,43.08
2023-02-23T10:25:40.315Z,43.73
2023-02-23T10:28:11.564Z,43.44
2023-02-23T10:30:40.889Z,41.77
2023-02-23T10:33:13.378Z,42.35
2023-02-23T10:35:40.408Z,43.09
2023-02-23T10:38:18.467Z,43.22
2023-02-23T10:40:50.112Z,42.07
2023-02-23T10:43:16.779Z,41.36
2023-02-23T10:46:48.947Z,40.29
2023-02-23T10:49:50.659Z,42.51
2023-02-23T10:52:22.024Z,43.04
2023-02-23T10:54:51.504Z,43.42
2023-02-23T10:57:39.930Z,42.01
2023-02-23T11:00:33.028Z,41.44
2023-02-23T11:03:03.192Z,41.49
2023-02-23T11:05:53.789Z,41.21
2023-02-23T11:08:25.247Z,41.35
2023-02-23T11:11:05.501Z,41.49
2023-02-23T11:13:42.617Z,40.94
2023-02-23T11:16:25.827Z,41.12
2023-02-23T11:18:59.877Z,41.13
2023-02-23T11:21:38.922Z,40.07
2023-02-23T11:24:21.436Z,41.12
2023-02-23T11:26:51.290Z,40.74
2023-02-23T11:29:38.041Z,42.24
2023-02-23T11:32:10.452Z,42.37
2023-02-23T11:34:41.218Z,41.06
2023-02-23T11:37:31.277Z,41.38
2023-02-23T11:40:00.677Z,41.79
2023-02-23T11:42:33.147Z,41.23
2023-02-23T11:45:14.633Z,42.31
2023-02-23T11:47:48.307Z,41.49
2023-02-23T11:50:32.593Z,40.11
2023-02-23T11:53:20.875Z,41.66
2023-02-23T11:55:50.482Z,42.17
2023-02-23T11:58:25.881Z,41.16
2023-02-23T12:00:58.115Z,39.85
2023-02-23T12:03:27.440Z,39.85
2023-02-23T12:05:59.656Z,39.31
2023-02-23T12:08:44.640Z,40.15
2023-02-23T12:11:20.708Z,39.31
2023-02-23T12:13:55.901Z,39.06
2023-02-23T12:16:29.546Z,38.46
2023-02-23T12:19:20.615Z,39.51
2023-02-23T12:22:00.965Z,38.60
2023-02-23T12:24:58.348Z,39.33
2023-02-23T12:27:38.139Z,39.14
2023-02-23T12:30:13.702Z,39.81
2023-02-23T12:32:48.411Z,39.29
2023-02-23T12:35:17.973Z,41.20
2023-02-23T12:37:49.759Z,39.99
2023-02-23T12:40:25.479Z,39.62
2023-02-23T12:43:13.348Z,39.51
2023-02-23T12:45:55.722Z,38.54
2023-02-23T12:48:50.306Z,39.57
2023-02-23T12:51:35.334Z,38.81
2023-02-23T12:54:03.087Z,38.88
2023-02-23T12:56:42.494Z,40.16
2023-02-23T12:59:38.398Z,40.59
2023-02-23T13:02:24.067Z,41.31
2023-02-23T13:05:05.822Z,39.76
2023-02-23T13:07:41.878Z,39.91
2023-02-23T13:11:05.119Z,39.77
2023-02-23T13:14:15.484Z,40.51
2023-02-23T13:16:48.671Z,40.65
2023-02-23T13:19:21.366Z,40.62
2023-02-23T13:22:12.897Z,41.39
2023-02-23T13:24:45.840Z,40.65
2023-02-23T13:27:19.447Z,40.04
2023-02-23T13:29:49.858Z,39.42
2023-02-23T13:32:19.481Z,40.25
2023-02-23T13:34:52.703Z,41.01
2023-02-23T13:37:23.895Z,40.93
2023-02-23T13:40:00.196Z,40.38
2023-02-23T13:42:30.981Z,40.43
2023-02-23T13:45:22.811Z,41.65
2023-02-23T13:48:18.707Z,41.69
2023-02-23T13:50:56.295Z,41.15
2023-02-23T13:53:34.036Z,41.04
2023-02-23T13:56:04.445Z,40.36
2023-02-23T13:58:32.437Z,42.46
2023-02-23T14:01:10.689Z,42.09
2023-02-23T14:03:47.039Z,41.91
2023-02-23T14:06:19.218Z,41.47
2023-02-23T14:08:52.507Z,41.84
2023-02-23T14:11:46.144Z,41.64
2023-02-23T14:14:36.064Z,40.84
2023-02-23T14:17:14.588Z,41.84
2023-02-23T14:19:43.839Z,42.94
2023-02-23T14:22:15.838Z,42.58
2023-02-23T14:24:42.531Z,42.71
2023-02-23T14:27:30.607Z,43.10
2023-02-23T14:30:11.562Z,44.27
2023-02-23T14:32:42.142Z,43.50
2023-02-23T14:35:33.360Z,41.83
2023-02-23T14:38:35.965Z,42.61
2023-02-23T14:41:12.004Z,42.98
2023-02-23T14:43:38.515Z,43.01
2023-02-23T14:46:11.912Z,43.46
2023-02-23T14:48:43.522Z,44.57
2023-02-23T14:51:24.699Z,43.78
2023-02-23T14:53:53.806Z,43.98
2023-02-23T14:56:26.213Z,43.90
2023-02-23T14:58:58.845Z,43.69
2023-02-23T15:01:39.626Z,44.13
2023-02-23T15:04:16.369Z,44.16
2023-02-23T15:06:47.123Z,45.25
2023-02-23T15:09:22.518Z,43.69
2023-02-23T15:11:53.977Z,44.35
2023-02-23T15:14:27.826Z,43.59
2023-02-23T15:16:56.671Z,44.54
2023-02-23T15:19:25.850Z,43.20
2023-02-23T15:21:55.079Z,43.22
2023-02-23T15:24:25.886Z,44.40
2023-02-23T15:26:52.573Z,44.14
2023-02-23T15:29:22.854Z,43.48
2023-02-23T15:31:52.854Z,43.79
2023-02-23T15:34:26.405Z,44.37
2023-02-23T15:36:52.906Z,44.98
2023-02-23T15:39:35.329Z,46.88
2023-02-23T15:42:02.891Z,45.31
2023-02-23T15:44:43.538Z,45.59
2023-02-23T15:47:23.101Z,45.35
2023-02-23T15:49:50.344Z,45.41
2023-02-23T15:52:22.690Z,45.46
2023-02-23T15:54:59.991Z,45.06
2023-02-23T15:57:32.086Z,46.23
2023-02-23T16:00:00.678Z,45.99
2023-02-23T16:02:29.641Z,46.01
2023-02-23T16:04:57.683Z,46.32
2023-02-23T16:07:38.137Z,47.37
2023-02-23T16:10:24.959Z,47.22
2023-02-23T16:12:53.770Z,46.83
2023-02-23T16:15:40.132Z,46.94
2023-02-23T16:18:15.863Z,46.97
2023-02-23T16:20:57.498Z,47.28
2023-02-23T16:23:40.564Z,47.42
2023-02-23T16:26:16.262Z,47.42
2023-02-23T16:28:45.876Z,47.90
2023-02-23T16:31:14.127Z,47.71
2023-02-23T16:33:45.217Z,47.76
2023-02-23T16:36:16.283Z,47.44
2023-02-23T16:38:56.732Z,47.38
2023-02-23T16:41:25.338Z,47.67
2023-02-23T16:43:54.266Z,47.94
2023-02-23T16:46:24.777Z,48.24
2023-02-23T16:48:51.950Z,48.37
2023-02-23T16:51:20.911Z,48.30
2023-02-23T16:53:47.456Z,48.19
2023-02-23T16:56:22.075Z,48.37
2023-02-23T16:58:58.316Z,48.69
2023-02-23T17:01:25.083Z,47.75
2023-02-23T17:03:54.004Z,47.97
2023-02-23T17:06:22.555Z,48.62
2023-02-23T17:08:57.566Z,48.07
2023-02-23T17:11:24.998Z,47.73
2023-02-23T17:13:51.573Z,47.62
2023-02-23T17:16:18.570Z,47.04
2023-02-23T17:18:45.394Z,47.03
2023-02-23T17:21:13.958Z,47.58
2023-02-23T17:23:54.220Z,48.13
2023-02-23T17:26:24.890Z,48.36
2023-02-23T17:28:52.071Z,48.33
2023-02-23T17:31:20.569Z,48.50
2023-02-23T17:33:48.346Z,48.61
2023-02-23T17:36:17.821Z,48.72
2023-02-23T17:38:44.899Z,49.12
2023-02-23T17:41:17.389Z,49.30
2023-02-23T17:43:44.705Z,49.41
2023-02-23T17:46:13.133Z,49.44
2023-02-23T17:48:40.816Z,49.94
2023-02-23T17:51:13.244Z,50.02
2023-02-23T17:53:40.905Z,50.04
2023-02-23T17:56:09.588Z,50.20
2023-02-23T17:58:37.058Z,50.33
2023-02-23T18:01:06.836Z,50.90
2023-02-23T18:03:36.003Z,51.03
2023-02-23T18:06:04.853Z,51.20
2023-02-23T18:08:31.972Z,51.21
2023-02-23T18:10:59.033Z,51.20
2023-02-23T18:13:27.262Z,51.43
2023-02-23T18:15:58.810Z,51.60
2023-02-23T18:18:25.853Z,51.55
2023-02-23T18:20:55.374Z,51.76
2023-02-23T18:23:22.718Z,51.75
2023-02-23T18:25:50.072Z,52.02
2023-02-23T18:28:17.766Z,52.19
2023-02-23T18:30:44.915Z,52.31
2023-02-23T18:33:12.894Z,52.52
2023-02-23T18:35:45.530Z,52.65
2023-02-23T18:38:14.165Z,52.46
2023-02-23T18:40:41.024Z,52.52
2023-02-23T18:43:08.152Z,52.33
2023-02-23T18:45:34.850Z,52.38
2023-02-23T18:48:01.415Z,52.80
2023-02-23T18:50:28.469Z,52.67
2023-02-23T18:52:56.506Z,52.14
2023-02-23T18:55:23.877Z,51.11
2023-02-23T18:57:52.618Z,50.97
2023-02-23T19:00:19.993Z,51.24
2023-02-23T19:02:47.125Z,51.53
2023-02-23T19:05:14.810Z,51.68
2023-02-23T19:07:41.631Z,51.81
2023-02-23T19:10:14.846Z,51.70
2023-02-23T19:12:41.651Z,51.55
2023-02-23T19:15:09.390Z,51.07
2023-02-23T19:17:38.729Z,50.25
2023-02-23T19:20:13.263Z,50.02
2023-02-23T19:22:41.380Z,50.37
2023-02-23T19:25:11.723Z,50.26
2023-02-23T19:27:38.811Z,50.91
2023-02-23T19:30:09.713Z,50.96
2023-02-23T19:32:39.698Z,50.41
2023-02-23T19:35:09.405Z,49.96
2023-02-23T19:37:38.005Z,49.90
2023-02-23T19:40:05.504Z,50.99
2023-02-23T19:42:32.838Z,50.68
2023-02-23T19:44:59.542Z,50.58
2023-02-23T19:47:26.214Z,49.95
2023-02-23T19:49:55.669Z,50.47
2023-02-23T19:52:23.527Z,49.86
2023-02-23T19:54:50.271Z,50.07
2023-02-23T19:57:16.958Z,50.66
2023-02-23T19:59:43.602Z,50.77
2023-02-23T20:02:11.279Z,51.20
2023-02-23T20:04:39.179Z,51.56
2023-02-23T20:07:05.809Z,51.12
2023-02-23T20:09:33.526Z,51.38
2023-02-23T20:12:00.209Z,51.56
2023-02-23T20:14:29.488Z,52.56
2023-02-23T20:16:56.106Z,52.29
2023-02-23T20:19:22.775Z,52.45
2023-02-23T20:21:51.117Z,51.75
2023-02-23T20:24:18.532Z,51.95
2023-02-23T20:26:46.176Z,51.35
2023-02-23T20:29:17.984Z,51.32
2023-02-23T20:31:50.432Z,51.10
2023-02-23T20:34:24.428Z,51.40
2023-02-23T20:36:51.736Z,51.20
2023-02-23T20:39:19.168Z,51.27
2023-02-23T20:41:47.884Z,51.58
2023-02-23T20:44:16.000Z,51.00
2023-02-23T20:46:44.625Z,51.97
2023-02-23T20:49:12.714Z,51.21
2023-02-23T20:51:41.796Z,51.27
2023-02-23T20:54:10.662Z,50.61
2023-02-23T20:56:38.860Z,50.67
2023-02-23T20:59:06.316Z,52.35
2023-02-23T21:01:33.233Z,51.59
2023-02-23T21:04:02.926Z,51.09
2023-02-23T21:06:32.191Z,50.10
2023-02-23T21:09:05.022Z,51.02
2023-02-23T21:11:32.124Z,51.76
2023-02-23T21:36:37.266Z,49.97
2023-02-23T21:39:06.498Z,50.47
2023-02-23T21:41:33.771Z,51.08
2023-02-23T21:44:15.710Z,50.98
2023-02-23T21:46:42.426Z,51.28
2023-02-23T21:49:27.079Z,50.38
2023-02-23T21:51:55.215Z,50.18
2023-02-23T21:54:21.852Z,50.55
2023-02-23T21:56:48.445Z,50.66
2023-02-23T21:59:35.175Z,50.41
2023-02-23T22:02:30.646Z,50.03
2023-02-23T22:05:02.528Z,50.76
2023-02-23T22:07:29.272Z,50.26
2023-02-23T22:09:56.017Z,50.32
2023-02-23T22:12:22.602Z,50.60
2023-02-23T22:14:49.197Z,50.85
2023-02-23T22:17:18.907Z,51.18
2023-02-23T22:19:51.973Z,51.80
2023-02-23T22:22:20.098Z,51.80
2023-02-23T22:24:48.811Z,51.83
2023-02-23T22:27:16.430Z,52.01
2023-02-23T22:30:12.273Z,51.31
2023-02-23T22:32:51.377Z,51.42
2023-02-23T22:35:18.244Z,51.52
2023-02-23T22:37:44.981Z,52.96
2023-02-23T22:40:16.593Z,52.39
2023-02-23T22:42:49.569Z,52.69
2023-02-23T22:45:16.822Z,52.33
2023-02-23T22:50:38.984Z,52.02
2023-02-23T22:53:06.093Z,52.28
2023-02-23T22:55:34.987Z,52.24
2023-02-23T22:58:02.168Z,52.97
2023-02-23T23:00:29.054Z,53.67
2023-02-23T23:03:12.338Z,54.76
2023-02-23T23:06:02.456Z,54.55
2023-02-23T23:08:42.537Z,54.08
2023-02-23T23:11:10.280Z,53.35
2023-02-23T23:13:43.256Z,52.66
2023-02-23T23:16:16.910Z,52.85
2023-02-23T23:18:57.284Z,52.64
2023-02-23T23:21:26.328Z,52.94
2023-02-23T23:24:01.214Z,54.17
2023-02-23T23:26:28.953Z,52.60
2023-02-23T23:28:58.394Z,52.87
2023-02-23T23:31:29.091Z,52.54
2023-02-23T23:34:10.561Z,53.13
2023-02-23T23:37:05.597Z,53.51
2023-02-23T23:39:32.169Z,53.49
2023-02-23T23:42:01.755Z,53.05
2023-02-23T23:44:29.303Z,53.30
2023-02-23T23:46:56.930Z,53.20
2023-02-23T23:49:28.024Z,52.94
2023-02-23T23:52:01.681Z,52.89
2023-02-23T23:54:33.397Z,52.98
2023-02-23T23:57:03.863Z,53.32
2023-02-23T23:59:31.625Z,52.47
